^^
Station Historical Data
 
Daily Summary for December 21, 2014 Units:  English    Metric   Both
« Previous Day
Next Day »
Daily Weekly Monthly Yearly Custom
  Current: High: Low: Average:
Temperature: 26.9 °F 34.9 °F 26.4 °F 29.3 °F
Dew Point: 14.9 °F 17.8 °F 14.2 °F 15.9 °F
Humidity: 60% 65% 44% 57%
Wind Speed: 2.0mph 3.8mph 0.0mph 1.7mph
Wind Gust: 4.5mph 6.0mph - -
WindNNE - - ESE
Pressure: 30.24 in 30.34 in 30.23 in -
Precipitation: 0.00 in      
Historical Graphs
 
 
Tabular Data for December 21, 2014
Time Temperature Dew Point Pressure Wind Wind Speed Wind Gust Humidity Rainfall Rate (Hourly)
00:00 26.9 °F 15.3 °F 30.27 in Calm     61% 0.00 in
00:05 26.9 °F 15.3 °F 30.26 in Calm     61% 0.00 in
00:10 26.9 °F 15.3 °F 30.26 in Calm     61% 0.00 in
00:15 26.8 °F 15.2 °F 30.26 in Calm     61% 0.00 in
00:20 26.8 °F 15.2 °F 30.26 in Calm     61% 0.00 in
00:25 26.8 °F 15.2 °F 30.26 in Calm     61% 0.00 in
00:30 26.8 °F 15.2 °F 30.26 in Calm     61% 0.00 in
00:35 26.8 °F 15.2 °F 30.26 in Calm     61% 0.00 in
00:40 26.9 °F 15.3 °F 30.26 in Calm     61% 0.00 in
00:45 26.9 °F 15.3 °F 30.26 in Calm     61% 0.00 in
00:50 26.9 °F 15.3 °F 30.26 in Calm     61% 0.00 in
00:55 26.9 °F 14.9 °F 30.26 in SSW 0.2 mph 0.7 mph 60% 0.00 in
01:00 26.9 °F 14.9 °F 30.26 in SSW 0.2 mph 0.7 mph 60% 0.00 in
01:05 26.9 °F 14.9 °F 30.26 in South 0.1 mph 0.7 mph 60% 0.00 in
01:10 26.8 °F 14.8 °F 30.26 in South 0.3 mph 0.7 mph 60% 0.00 in
01:15 26.8 °F 15.2 °F 30.26 in South 0.4 mph 0.7 mph 61% 0.00 in
01:21 26.8 °F 15.2 °F 30.26 in South 0.2 mph 0.7 mph 61% 0.00 in
01:26 26.8 °F 15.2 °F 30.27 in Calm   0.7 mph 61% 0.00 in
01:31 26.8 °F 15.2 °F 30.26 in Calm     61% 0.00 in
01:36 26.9 °F 15.3 °F 30.26 in South 0.2 mph 0.7 mph 61% 0.00 in
01:41 26.9 °F 15.3 °F 30.26 in SSW 0.6 mph 0.7 mph 61% 0.00 in
01:46 26.8 °F 15.2 °F 30.26 in SSW 0.6 mph 0.7 mph 61% 0.00 in
01:51 26.6 °F 15.0 °F 30.26 in SSW 0.3 mph 0.7 mph 61% 0.00 in
01:56 26.6 °F 15.4 °F 30.26 in Calm     62% 0.00 in
02:01 26.6 °F 15.4 °F 30.26 in Calm     62% 0.00 in
02:06 26.6 °F 15.4 °F 30.26 in Calm     62% 0.00 in
02:11 26.8 °F 15.5 °F 30.26 in Calm     62% 0.00 in
02:16 26.8 °F 15.5 °F 30.26 in Calm     62% 0.00 in
02:21 26.6 °F 15.4 °F 30.27 in Calm     62% 0.00 in
02:26 26.6 °F 15.7 °F 30.27 in Calm     63% 0.00 in
02:31 26.6 °F 15.7 °F 30.27 in Calm     63% 0.00 in
02:36 26.6 °F 15.7 °F 30.27 in Calm     63% 0.00 in
02:41 26.6 °F 15.7 °F 30.27 in Calm     63% 0.00 in
02:46 26.6 °F 15.7 °F 30.27 in Calm     63% 0.00 in
02:51 26.6 °F 15.7 °F 30.27 in Calm     63% 0.00 in
02:56 26.8 °F 15.9 °F 30.27 in North 0.3 mph 0.7 mph 63% 0.00 in
03:01 26.8 °F 15.9 °F 30.27 in ENE 0.4 mph 0.7 mph 63% 0.00 in
03:06 26.8 °F 15.9 °F 30.28 in SE 0.5 mph 0.7 mph 63% 0.00 in
03:11 26.8 °F 15.5 °F 30.27 in SE 0.6 mph 0.7 mph 62% 0.00 in
03:16 26.9 °F 15.7 °F 30.28 in SE 0.2 mph 0.7 mph 62% 0.00 in
03:21 27.1 °F 16.2 °F 30.28 in Calm   0.7 mph 63% 0.00 in
03:26 27.1 °F 16.2 °F 30.28 in South 0.1 mph 0.7 mph 63% 0.00 in
03:31 27.1 °F 15.9 °F 30.28 in South 0.1 mph 0.7 mph 62% 0.00 in
03:36 26.9 °F 15.7 °F 30.28 in South 0.2 mph 0.7 mph 62% 0.00 in
03:41 27.1 °F 15.9 °F 30.27 in South 0.1 mph 0.7 mph 62% 0.00 in
03:46 27.1 °F 15.9 °F 30.27 in North 0.1 mph 0.7 mph 62% 0.00 in
03:51 27.1 °F 15.9 °F 30.28 in NNW 0.4 mph 0.7 mph 62% 0.00 in
03:56 27.1 °F 15.9 °F 30.28 in WNW 0.6 mph 0.7 mph 62% 0.00 in
04:01 27.1 °F 15.9 °F 30.28 in NW 0.6 mph 0.7 mph 62% 0.00 in
04:06 27.1 °F 15.9 °F 30.27 in North 0.7 mph 0.7 mph 62% 0.00 in
04:11 27.1 °F 15.9 °F 30.28 in North 0.7 mph 1.6 mph 62% 0.00 in
04:16 26.9 °F 15.7 °F 30.27 in South 0.9 mph 1.6 mph 62% 0.00 in
04:21 26.8 °F 15.5 °F 30.27 in South 1.0 mph 1.6 mph 62% 0.00 in
04:26 26.6 °F 15.7 °F 30.27 in South 0.5 mph 1.6 mph 63% 0.00 in
04:31 26.4 °F 15.6 °F 30.27 in Calm     63% 0.00 in
04:36 26.6 °F 16.1 °F 30.28 in Calm     64% 0.00 in
04:41 26.6 °F 16.1 °F 30.28 in Calm     64% 0.00 in
04:46 26.8 °F 16.6 °F 30.28 in Calm     65% 0.00 in
04:51 26.8 °F 16.6 °F 30.28 in Calm     65% 0.00 in
04:56 26.9 °F 16.8 °F 30.28 in Calm     65% 0.00 in
05:01 26.9 °F 16.8 °F 30.28 in Calm     65% 0.00 in
05:06 26.9 °F 16.4 °F 30.28 in Calm     64% 0.00 in
05:11 26.9 °F 16.4 °F 30.27 in Calm     64% 0.00 in
05:16 27.1 °F 16.6 °F 30.28 in Calm     64% 0.00 in
05:21 27.1 °F 16.6 °F 30.28 in Calm     64% 0.00 in
05:26 27.1 °F 16.6 °F 30.28 in Calm     64% 0.00 in
05:31 27.1 °F 16.6 °F 30.29 in Calm     64% 0.00 in
05:36 27.1 °F 16.6 °F 30.29 in Calm     64% 0.00 in
05:41 26.9 °F 16.4 °F 30.29 in Calm     64% 0.00 in
05:46 26.9 °F 16.4 °F 30.29 in Calm     64% 0.00 in
05:51 26.9 °F 16.8 °F 30.29 in Calm     65% 0.00 in
05:56 26.9 °F 16.8 °F 30.29 in Calm     65% 0.00 in
06:01 27.1 °F 17.0 °F 30.29 in Calm     65% 0.00 in
06:06 27.1 °F 17.0 °F 30.30 in Calm     65% 0.00 in
06:11 27.1 °F 17.0 °F 30.29 in Calm     65% 0.00 in
06:16 27.1 °F 17.0 °F 30.30 in Calm     65% 0.00 in
06:21 27.1 °F 16.6 °F 30.30 in Calm     64% 0.00 in
06:26 27.1 °F 17.0 °F 30.30 in Calm     65% 0.00 in
06:31 27.1 °F 17.0 °F 30.30 in Calm     65% 0.00 in
06:37 27.3 °F 17.1 °F 30.30 in Calm     65% 0.00 in
06:42 27.3 °F 17.1 °F 30.30 in Calm     65% 0.00 in
06:47 27.3 °F 17.1 °F 30.30 in Calm     65% 0.00 in
06:52 27.1 °F 17.0 °F 30.31 in Calm     65% 0.00 in
06:57 27.3 °F 16.8 °F 30.31 in Calm     64% 0.00 in
07:02 27.3 °F 16.8 °F 30.31 in Calm     64% 0.00 in
07:07 27.3 °F 16.8 °F 30.31 in Calm     64% 0.00 in
07:12 27.1 °F 16.6 °F 30.31 in Calm     64% 0.00 in
07:17 26.9 °F 16.4 °F 30.31 in Calm     64% 0.00 in
07:22 26.9 °F 16.8 °F 30.31 in Calm     65% 0.00 in
07:27 26.9 °F 16.8 °F 30.32 in Calm     65% 0.00 in
07:32 26.8 °F 16.3 °F 30.31 in Calm     64% 0.00 in
07:37 26.8 °F 16.3 °F 30.32 in Calm     64% 0.00 in
07:42 26.6 °F 16.4 °F 30.32 in Calm     65% 0.00 in
07:47 26.8 °F 16.6 °F 30.32 in Calm     65% 0.00 in
07:52 26.8 °F 16.6 °F 30.32 in Calm     65% 0.00 in
07:57 26.9 °F 16.8 °F 30.32 in Calm     65% 0.00 in
08:02 26.9 °F 16.8 °F 30.32 in Calm     65% 0.00 in
08:07 26.9 °F 16.4 °F 30.32 in Calm     64% 0.00 in
08:12 26.9 °F 16.4 °F 30.32 in Calm     64% 0.00 in
08:17 26.9 °F 16.4 °F 30.32 in Calm     64% 0.00 in
08:22 26.9 °F 16.4 °F 30.32 in Calm     64% 0.00 in
08:27 26.8 °F 16.3 °F 30.32 in Calm     64% 0.00 in
08:32 26.8 °F 16.3 °F 30.32 in South 0.2 mph 0.7 mph 64% 0.00 in
08:37 26.8 °F 16.6 °F 30.32 in South 0.4 mph 0.7 mph 65% 0.00 in
08:42 26.9 °F 16.8 °F 30.32 in South 0.4 mph 0.7 mph 65% 0.00 in
08:47 27.1 °F 17.0 °F 30.32 in West 0.5 mph 0.7 mph 65% 0.00 in
08:52 27.3 °F 17.1 °F 30.32 in NW 0.5 mph 0.7 mph 65% 0.00 in
08:57 27.7 °F 17.1 °F 30.32 in NW 0.2 mph 0.7 mph 64% 0.00 in
09:02 27.7 °F 17.1 °F 30.32 in West 0.7 mph 1.6 mph 64% 0.00 in
09:07 27.7 °F 16.4 °F 30.33 in West 1.3 mph 1.6 mph 62% 0.00 in
09:12 27.8 °F 16.9 °F 30.32 in WNW 1.0 mph 1.6 mph 63% 0.00 in
09:17 28.0 °F 17.1 °F 30.32 in ENE 0.7 mph 1.6 mph 63% 0.00 in
09:22 28.4 °F 17.1 °F 30.32 in East 1.5 mph 3.1 mph 62% 0.00 in
09:27 28.6 °F 17.2 °F 30.32 in ENE 1.9 mph 3.1 mph 62% 0.00 in
09:32 28.9 °F 17.2 °F 30.32 in NE 1.7 mph 2.2 mph 61% 0.00 in
09:37 29.1 °F 17.4 °F 30.32 in NE 1.3 mph 2.2 mph 61% 0.00 in
09:42 28.9 °F 16.8 °F 30.32 in ESE 0.7 mph 1.6 mph 60% 0.00 in
09:47 29.1 °F 17.0 °F 30.32 in SSE 1.0 mph 1.6 mph 60% 0.00 in
09:52 29.3 °F 17.2 °F 30.32 in East 1.5 mph 2.2 mph 60% 0.00 in
09:57 29.6 °F 17.5 °F 30.33 in ENE 1.2 mph 2.2 mph 60% 0.00 in
10:02 29.6 °F 17.5 °F 30.33 in ESE 1.1 mph 1.6 mph 60% 0.00 in
10:07 30.2 °F 17.6 °F 30.32 in ESE 1.6 mph 1.6 mph 59% 0.00 in
10:12 30.4 °F 17.8 °F 30.32 in ESE 1.7 mph 2.2 mph 59% 0.00 in
10:17 30.5 °F 17.2 °F 30.33 in SE 1.8 mph 3.8 mph 57% 0.00 in
10:22 30.4 °F 17.0 °F 30.33 in SE 2.6 mph 4.5 mph 57% 0.00 in
10:27 30.5 °F 17.2 °F 30.33 in ESE 2.8 mph 4.5 mph 57% 0.00 in
10:32 30.7 °F 17.3 °F 30.33 in East 2.0 mph 3.1 mph 57% 0.00 in
10:37 30.7 °F 16.9 °F 30.33 in ENE 1.6 mph 2.2 mph 56% 0.00 in
10:42 30.9 °F 17.1 °F 30.34 in ENE 1.7 mph 3.1 mph 56% 0.00 in
10:47 31.1 °F 17.2 °F 30.33 in East 2.0 mph 3.1 mph 56% 0.00 in
10:53 31.3 °F 17.4 °F 30.33 in NE 2.1 mph 3.8 mph 56% 0.00 in
10:58 31.3 °F 16.6 °F 30.33 in ESE 2.7 mph 4.5 mph 54% 0.00 in
11:03 31.3 °F 16.1 °F 30.32 in SSE 2.4 mph 4.5 mph 53% 0.00 in
11:08 31.4 °F 16.7 °F 30.32 in ESE 2.4 mph 4.5 mph 54% 0.00 in
11:13 31.6 °F 16.9 °F 30.32 in East 2.9 mph 4.5 mph 54% 0.00 in
11:18 32.0 °F 16.8 °F 30.31 in East 2.1 mph 3.1 mph 53% 0.00 in
11:23 32.0 °F 16.8 °F 30.31 in ENE 1.7 mph 2.2 mph 53% 0.00 in
11:28 31.8 °F 16.2 °F 30.31 in ENE 1.5 mph 2.2 mph 52% 0.00 in
11:33 32.0 °F 16.4 °F 30.31 in NE 1.5 mph 2.2 mph 52% 0.00 in
11:38 32.2 °F 16.5 °F 30.31 in NNE 1.6 mph 2.2 mph 52% 0.00 in
11:43 32.2 °F 16.1 °F 30.31 in North 1.5 mph 2.2 mph 51% 0.00 in
11:48 32.5 °F 16.4 °F 30.30 in North 1.6 mph 2.2 mph 51% 0.00 in
11:53 32.9 °F 16.8 °F 30.30 in East 2.1 mph 4.5 mph 51% 0.00 in
11:58 33.4 °F 17.3 °F 30.30 in ENE 2.9 mph 4.5 mph 51% 0.00 in
12:03 33.4 °F 16.3 °F 30.30 in NNE 2.8 mph 3.8 mph 49% 0.00 in
12:08 33.1 °F 15.5 °F 30.30 in North 2.5 mph 3.1 mph 48% 0.00 in
12:13 33.1 °F 16.0 °F 30.30 in North 2.2 mph 3.1 mph 49% 0.00 in
12:18 33.1 °F 16.0 °F 30.30 in NNW 2.1 mph 3.1 mph 49% 0.00 in
12:23 33.1 °F 15.5 °F 30.30 in NW 1.8 mph 3.1 mph 48% 0.00 in
12:28 33.1 °F 16.0 °F 30.29 in North 1.8 mph 3.1 mph 49% 0.00 in
12:33 33.2 °F 16.2 °F 30.28 in NNE 1.4 mph 3.1 mph 49% 0.00 in
12:38 33.6 °F 16.5 °F 30.28 in ENE 1.6 mph 3.8 mph 49% 0.00 in
12:43 34.1 °F 17.0 °F 30.28 in East 1.9 mph 3.8 mph 49% 0.00 in
12:48 34.1 °F 17.0 °F 30.28 in ESE 2.3 mph 3.8 mph 49% 0.00 in
12:53 34.1 °F 17.0 °F 30.28 in SE 3.2 mph 3.8 mph 49% 0.00 in
12:58 34.0 °F 15.9 °F 30.28 in ESE 3.1 mph 4.5 mph 47% 0.00 in
13:03 34.0 °F 16.4 °F 30.28 in East 2.8 mph 4.5 mph 48% 0.00 in
13:08 34.1 °F 16.0 °F 30.28 in ESE 2.5 mph 3.8 mph 47% 0.00 in
13:13 34.3 °F 16.2 °F 30.27 in ESE 2.1 mph 3.1 mph 47% 0.00 in
13:18 34.3 °F 16.2 °F 30.28 in East 2.8 mph 4.5 mph 47% 0.00 in
13:23 34.5 °F 16.4 °F 30.27 in East 3.8 mph 4.5 mph 47% 0.00 in
13:28 34.1 °F 15.6 °F 30.27 in East 2.9 mph 4.5 mph 46% 0.00 in
13:33 34.0 °F 15.4 °F 30.27 in NNE 2.1 mph 3.8 mph 46% 0.00 in
13:38 34.3 °F 16.2 °F 30.27 in NE 2.5 mph 4.5 mph 47% 0.00 in
13:43 34.3 °F 15.7 °F 30.26 in NE 2.4 mph 4.5 mph 46% 0.00 in
13:48 34.3 °F 15.7 °F 30.27 in NNE 1.5 mph 2.2 mph 46% 0.00 in
13:53 34.3 °F 15.7 °F 30.26 in NNE 1.9 mph 3.8 mph 46% 0.00 in
13:58 34.7 °F 16.0 °F 30.26 in North 2.8 mph 4.5 mph 46% 0.00 in
14:03 34.9 °F 16.2 °F 30.26 in NE 2.9 mph 4.5 mph 46% 0.00 in
14:08 34.9 °F 15.2 °F 30.26 in SE 3.4 mph 6.0 mph 44% 0.00 in
14:13 34.7 °F 15.0 °F 30.26 in SSE 2.8 mph 6.0 mph 44% 0.00 in
14:18 34.5 °F 15.4 °F 30.26 in SSE 1.9 mph 3.8 mph 45% 0.00 in
14:23 34.5 °F 15.4 °F 30.26 in SE 2.4 mph 5.4 mph 45% 0.00 in
14:28 34.0 °F 14.4 °F 30.26 in SSE 3.2 mph 5.4 mph 44% 0.00 in
14:34 33.6 °F 14.6 °F 30.26 in South 2.6 mph 5.4 mph 45% 0.00 in
14:39 33.8 °F 15.2 °F 30.26 in SSW 1.4 mph 4.5 mph 46% 0.00 in
14:44 33.8 °F 14.2 °F 30.26 in SSE 2.3 mph 4.5 mph 44% 0.00 in
14:49 33.6 °F 14.6 °F 30.25 in SE 2.6 mph 4.5 mph 45% 0.00 in
14:54 33.4 °F 14.9 °F 30.25 in ESE 1.8 mph 4.5 mph 46% 0.00 in
14:59 33.6 °F 15.6 °F 30.25 in SE 2.2 mph 3.8 mph 47% 0.00 in
15:04 34.0 °F 15.4 °F 30.25 in SE 2.8 mph 3.8 mph 46% 0.00 in
15:09 34.0 °F 14.9 °F 30.25 in SE 3.0 mph 3.8 mph 45% 0.00 in
15:14 34.0 °F 15.4 °F 30.25 in SE 2.8 mph 3.8 mph 46% 0.00 in
15:19 34.3 °F 15.7 °F 30.25 in ESE 2.4 mph 3.1 mph 46% 0.00 in
15:24 34.5 °F 15.9 °F 30.25 in ESE 2.5 mph 3.8 mph 46% 0.00 in
15:29 34.5 °F 15.4 °F 30.25 in East 2.7 mph 3.8 mph 45% 0.00 in
15:34 34.5 °F 15.4 °F 30.25 in East 2.6 mph 3.1 mph 45% 0.00 in
15:39 34.3 °F 15.2 °F 30.25 in ENE 2.1 mph 3.1 mph 45% 0.00 in
15:44 34.1 °F 15.1 °F 30.25 in East 1.6 mph 3.1 mph 45% 0.00 in
15:49 34.1 °F 15.1 °F 30.25 in East 2.0 mph 3.8 mph 45% 0.00 in
15:54 33.8 °F 14.7 °F 30.25 in East 1.9 mph 3.8 mph 45% 0.00 in
15:59 33.6 °F 14.6 °F 30.25 in ESE 1.8 mph 3.8 mph 45% 0.00 in
16:04 33.6 °F 15.1 °F 30.25 in East 2.4 mph 4.5 mph 46% 0.00 in
16:09 33.6 °F 15.1 °F 30.25 in ENE 2.2 mph 4.5 mph 46% 0.00 in
16:14 32.9 °F 14.4 °F 30.25 in ENE 2.9 mph 5.4 mph 46% 0.00 in
16:19 32.7 °F 14.7 °F 30.25 in ENE 3.2 mph 5.4 mph 47% 0.00 in
16:24 32.5 °F 14.6 °F 30.25 in East 2.2 mph 4.5 mph 47% 0.00 in
16:29 32.3 °F 14.4 °F 30.26 in ESE 1.8 mph 4.5 mph 47% 0.00 in
16:34 32.2 °F 14.2 °F 30.26 in ENE 1.1 mph 2.2 mph 47% 0.00 in
16:39 31.8 °F 14.4 °F 30.25 in NW 0.7 mph 0.7 mph 48% 0.00 in
16:44 31.8 °F 14.9 °F 30.25 in NNW 0.7 mph 0.7 mph 49% 0.00 in
16:49 31.4 °F 15.0 °F 30.25 in North 0.6 mph 0.7 mph 50% 0.00 in
16:54 31.3 °F 14.8 °F 30.25 in NNE 0.6 mph 0.7 mph 50% 0.00 in
16:59 30.9 °F 14.5 °F 30.26 in NE 0.8 mph 3.1 mph 50% 0.00 in
17:04 30.7 °F 14.8 °F 30.25 in NE 0.7 mph 3.1 mph 51% 0.00 in
17:09 30.5 °F 15.0 °F 30.25 in NNE 0.9 mph 2.2 mph 52% 0.00 in
17:14 30.4 °F 14.9 °F 30.25 in North 1.2 mph 2.2 mph 52% 0.00 in
17:19 30.2 °F 15.1 °F 30.25 in North 1.1 mph 2.2 mph 53% 0.00 in
17:24 30.2 °F 15.1 °F 30.25 in North 0.5 mph 2.2 mph 53% 0.00 in
17:29 29.6 °F 14.6 °F 30.26 in NNE 0.6 mph 2.2 mph 53% 0.00 in
17:34 29.6 °F 15.1 °F 30.26 in NNE 1.7 mph 3.8 mph 54% 0.00 in
17:39 29.5 °F 14.9 °F 30.26 in NE 1.9 mph 3.8 mph 54% 0.00 in
17:44 29.3 °F 15.2 °F 30.26 in NE 1.6 mph 2.2 mph 55% 0.00 in
17:49 29.1 °F 15.0 °F 30.27 in NE 1.2 mph 2.2 mph 55% 0.00 in
17:54 28.9 °F 14.8 °F 30.26 in North 0.8 mph 1.6 mph 55% 0.00 in
17:59 28.7 °F 15.1 °F 30.26 in North 1.0 mph 1.6 mph 56% 0.00 in
18:04 28.7 °F 15.1 °F 30.26 in NNE 1.1 mph 1.6 mph 56% 0.00 in
18:09 28.6 °F 15.3 °F 30.26 in NNE 0.9 mph 1.6 mph 57% 0.00 in
18:14 28.4 °F 15.1 °F 30.25 in North 1.0 mph 1.6 mph 57% 0.00 in
18:19 28.2 °F 15.0 °F 30.25 in NNE 1.1 mph 2.2 mph 57% 0.00 in
18:24 28.2 °F 15.4 °F 30.25 in NNE 1.8 mph 3.1 mph 58% 0.00 in
18:29 28.0 °F 15.2 °F 30.25 in NE 2.7 mph 6.0 mph 58% 0.00 in
18:34 28.0 °F 15.2 °F 30.25 in NE 2.5 mph 6.0 mph 58% 0.00 in
18:39 27.8 °F 15.0 °F 30.25 in NNE 2.1 mph 3.1 mph 58% 0.00 in
18:44 27.8 °F 15.4 °F 30.25 in North 2.2 mph 3.1 mph 59% 0.00 in
18:49 27.7 °F 14.9 °F 30.24 in NE 2.6 mph 4.5 mph 58% 0.00 in
18:54 27.7 °F 15.2 °F 30.24 in NE 3.1 mph 4.5 mph 59% 0.00 in
19:00 27.7 °F 15.2 °F 30.24 in NNE 3.2 mph 4.5 mph 59% 0.00 in
19:05 27.7 °F 15.2 °F 30.23 in NNE 3.6 mph 4.5 mph 59% 0.00 in
19:10 27.7 °F 15.2 °F 30.23 in NE 3.5 mph 3.8 mph 59% 0.00 in
19:15 27.5 °F 15.5 °F 30.24 in NE 2.9 mph 3.8 mph 60% 0.00 in
19:20 27.5 °F 15.5 °F 30.24 in NE 2.6 mph 3.8 mph 60% 0.00 in
19:25 27.5 °F 15.5 °F 30.24 in NE 2.2 mph 3.8 mph 60% 0.00 in
19:30 27.5 °F 15.5 °F 30.24 in NNE 2.2 mph 4.5 mph 60% 0.00 in
19:35 27.5 °F 15.5 °F 30.23 in NE 2.4 mph 4.5 mph 60% 0.00 in
19:40 27.3 °F 15.3 °F 30.23 in NE 2.2 mph 4.5 mph 60% 0.00 in
19:45 27.3 °F 15.3 °F 30.23 in NE 2.3 mph 4.5 mph 60% 0.00 in
19:50 27.3 °F 15.3 °F 30.23 in ENE 2.5 mph 3.8 mph 60% 0.00 in
19:55 27.3 °F 15.3 °F 30.23 in NE 2.2 mph 3.8 mph 60% 0.00 in
20:00 27.3 °F 15.3 °F 30.23 in North 1.4 mph 2.2 mph 60% 0.00 in
20:05 27.3 °F 15.3 °F 30.23 in North 1.3 mph 1.6 mph 60% 0.00 in
20:10 27.1 °F 15.1 °F 30.23 in NNE 1.7 mph 3.1 mph 60% 0.00 in
20:15 26.9 °F 14.9 °F 30.24 in NNE 2.0 mph 4.5 mph 60% 0.00 in
Export, Pennsylvania, USA
Compliments of Weather Underground